Time;durP1;ratioP1;P1;durP2;ratioP2;P2;SDS_P1;SDS_P2;PMS_P1;PMS_P2;Temp;Humidity;BMP_temperature;BMP_pressure;BME280_temperature;BME280_humidity;BME280_pressure;Samples;Min_cycle;Max_cycle;Signal;HPM_P1;HPM_P2
2021/01/29 00:00:29;;;;;;;9.97;9.07;;;;;20.60;98916.00;;;;2079014;28;20228;-51
2021/01/29 00:01:29;;;;;;;8.90;8.10;;;;;20.60;98917.00;;;;2078987;28;20295;-50
2021/01/29 00:02:29;;;;;;;10.10;9.13;;;;;20.60;98910.00;;;;2078941;28;20222;-50
2021/01/29 00:03:30;;;;;;;9.63;8.53;;;;;20.60;98914.00;;;;2078863;28;20244;-51
2021/01/29 00:04:30;;;;;;;8.40;7.57;;;;;20.60;98911.00;;;;2078094;28;20210;-50
2021/01/29 00:05:41;;;;;;;10.33;9.23;;;;;20.60;98911.00;;;;2077787;28;20296;-51
2021/01/29 00:06:42;;;;;;;9.10;8.32;;;;;20.60;98902.00;;;;2079104;28;20749;-51
2021/01/29 00:07:43;;;;;;;9.10;8.30;;;;;20.60;98900.00;;;;2078834;28;20214;-50
2021/01/29 00:08:44;;;;;;;9.02;8.13;;;;;20.50;98889.00;;;;2070571;28;20229;-50
2021/01/29 00:09:44;;;;;;;8.87;8.07;;;;;20.60;98893.00;;;;2079666;28;20763;-51
2021/01/29 00:10:44;;;;;;;8.83;8.03;;;;;20.60;98893.00;;;;2078976;28;20240;-51
2021/01/29 00:11:46;;;;;;;8.70;7.90;;;;;20.50;98893.00;;;;2078906;28;20225;-51
2021/01/29 00:12:46;;;;;;;9.25;8.10;;;;;20.50;98893.00;;;;2079027;28;20241;-52
2021/01/29 00:13:47;;;;;;;9.10;8.30;;;;;20.60;98893.00;;;;2078899;28;20228;-52
2021/01/29 00:14:47;;;;;;;8.70;7.80;;;;;20.50;98892.00;;;;2078949;28;20692;-52
2021/01/29 00:15:47;;;;;;;7.90;7.17;;;;;20.50;98888.00;;;;2078056;28;20645;-52
2021/01/29 00:16:48;;;;;;;7.97;7.27;;;;;20.50;98891.00;;;;2079080;28;20213;-52
2021/01/29 00:17:48;;;;;;;7.40;6.80;;;;;20.50;98887.00;;;;2079189;28;20609;-52
2021/01/29 00:18:48;;;;;;;8.13;7.43;;;;;20.50;98887.00;;;;2079334;28;20252;-51
2021/01/29 00:19:49;;;;;;;8.50;7.80;;;;;20.50;98875.00;;;;2078381;28;20690;-52
2021/01/29 00:20:49;;;;;;;8.83;8.03;;;;;20.50;98877.00;;;;2078880;28;21060;-52
2021/01/29 00:21:50;;;;;;;8.60;7.80;;;;;20.50;98877.00;;;;2078148;28;20252;-52
2021/01/29 00:22:50;;;;;;;8.23;7.43;;;;;20.50;98871.00;;;;2078929;28;20228;-52
2021/01/29 00:23:50;;;;;;;8.40;7.67;;;;;20.50;98875.00;;;;2080085;28;20281;-52
2021/01/29 00:24:51;;;;;;;9.27;8.37;;;;;20.50;98874.00;;;;2077801;28;20294;-51
2021/01/29 00:25:52;;;;;;;8.20;7.40;;;;;20.50;98872.00;;;;2077776;28;20278;-52
2021/01/29 00:26:52;;;;;;;8.43;7.70;;;;;20.50;98866.00;;;;2079030;28;20694;-50
2021/01/29 00:27:53;;;;;;;8.03;7.33;;;;;20.50;98864.00;;;;2078314;28;20222;-51
2021/01/29 00:28:53;;;;;;;7.63;7.03;;;;;20.50;98854.00;;;;2078858;28;20222;-51
2021/01/29 00:29:53;;;;;;;8.00;7.23;;;;;20.50;98861.00;;;;2079458;28;20775;-53
2021/01/29 00:30:54;;;;;;;7.70;7.10;;;;;20.40;98859.00;;;;2078286;28;20222;-52
2021/01/29 00:31:54;;;;;;;7.83;7.13;;;;;20.40;98855.00;;;;2077905;28;20221;-51
2021/01/29 00:32:55;;;;;;;8.17;7.47;;;;;20.40;98855.00;;;;2078804;28;20233;-51
2021/01/29 00:33:55;;;;;;;8.23;7.00;;;;;20.40;98856.00;;;;2078227;28;20221;-51
2021/01/29 00:34:55;;;;;;;8.17;7.40;;;;;20.40;98853.00;;;;2079754;28;20671;-50
2021/01/29 00:35:56;;;;;;;7.53;6.83;;;;;20.50;98854.00;;;;2078517;28;20218;-50
2021/01/29 00:36:56;;;;;;;8.63;7.83;;;;;20.50;98849.00;;;;2078718;28;20214;-50
2021/01/29 00:37:57;;;;;;;7.33;6.73;;;;;20.40;98843.00;;;;2078817;28;20685;-50
2021/01/29 00:38:57;;;;;;;8.17;7.47;;;;;20.40;98838.00;;;;2078627;28;20209;-50
2021/01/29 00:39:57;;;;;;;7.60;7.00;;;;;20.40;98850.00;;;;2078435;28;20650;-50
2021/01/29 00:40:58;;;;;;;8.20;6.90;;;;;20.40;98837.00;;;;2079529;28;20594;-55
2021/01/29 00:41:58;;;;;;;7.90;7.20;;;;;20.40;98844.00;;;;2078626;28;20214;-52
2021/01/29 00:42:59;;;;;;;8.03;7.33;;;;;20.40;98838.00;;;;2078937;28;20236;-51
2021/01/29 00:43:59;;;;;;;6.93;6.37;;;;;20.40;98843.00;;;;2078734;28;20241;-52
2021/01/29 00:45:00;;;;;;;7.27;6.67;;;;;20.40;98840.00;;;;2077806;28;20800;-52
2021/01/29 00:46:00;;;;;;;7.90;7.10;;;;;20.40;98837.00;;;;2079978;28;20218;-50
2021/01/29 00:47:00;;;;;;;7.60;7.00;;;;;20.40;98834.00;;;;2078945;28;20750;-50
2021/01/29 00:48:01;;;;;;;6.80;6.20;;;;;20.40;98825.00;;;;2077447;28;20556;-50
2021/01/29 00:49:01;;;;;;;7.27;6.67;;;;;20.40;98825.00;;;;2076484;28;20273;-50
2021/01/29 00:50:03;;;;;;;7.20;6.60;;;;;20.40;98820.00;;;;2078522;28;20218;-50
2021/01/29 00:51:04;;;;;;;6.82;6.22;;;;;20.40;98822.00;;;;2075511;28;20222;-51
2021/01/29 00:52:04;;;;;;;7.30;6.70;;;;;20.40;98827.00;;;;2086077;28;20687;-51
2021/01/29 00:53:05;;;;;;;7.70;6.90;;;;;20.40;98814.00;;;;2073335;28;20309;-50
2021/01/29 00:54:05;;;;;;;6.70;6.17;;;;;20.40;98818.00;;;;2070580;28;20229;-51
2021/01/29 00:55:07;;;;;;;6.80;6.20;;;;;20.40;98813.00;;;;2069773;28;21061;-51
2021/01/29 00:56:07;;;;;;;6.57;5.97;;;;;20.40;98807.00;;;;2070788;28;20312;-50
2021/01/29 00:57:09;;;;;;;6.87;6.20;;;;;20.30;98805.00;;;;2071558;28;20778;-52
2021/01/29 00:58:10;;;;;;;6.45;5.95;;;;;20.40;98797.00;;;;2070011;28;20228;-50
2021/01/29 00:59:10;;;;;;;7.00;6.40;;;;;20.30;98798.00;;;;2070482;28;20221;-51
2021/01/29 01:00:11;;;;;;;6.30;5.80;;;;;20.40;98791.00;;;;2069458;28;20215;-49
2021/01/29 01:01:13;;;;;;;6.93;6.32;;;;;20.30;98785.00;;;;2070637;28;20210;-50
2021/01/29 01:02:14;;;;;;;6.28;5.78;;;;;20.30;98776.00;;;;2071118;28;20265;-52
2021/01/29 01:03:14;;;;;;;6.70;6.10;;;;;20.30;98783.00;;;;2080060;28;20690;-52
2021/01/29 01:04:14;;;;;;;6.27;5.77;;;;;20.30;98768.00;;;;2083576;28;20268;-50
2021/01/29 01:05:16;;;;;;;6.10;5.50;;;;;20.30;98769.00;;;;2077715;28;20764;-50
2021/01/29 01:06:16;;;;;;;6.63;6.03;;;;;20.30;98762.00;;;;2078790;28;20260;-51
2021/01/29 01:07:17;;;;;;;6.00;5.50;;;;;20.30;98763.00;;;;2079662;28;20236;-52
2021/01/29 01:08:17;;;;;;;6.63;5.90;;;;;20.30;98756.00;;;;2078700;28;20309;-52
2021/01/29 01:09:17;;;;;;;6.43;5.93;;;;;20.30;98753.00;;;;2078534;28;20862;-51
2021/01/29 01:10:18;;;;;;;6.23;5.73;;;;;20.30;98752.00;;;;2078575;28;20245;-51
2021/01/29 01:11:18;;;;;;;6.67;6.17;;;;;20.30;98748.00;;;;2078357;28;20253;-51
2021/01/29 01:12:19;;;;;;;6.40;5.80;;;;;20.30;98746.00;;;;2078558;28;20217;-51
2021/01/29 01:13:19;;;;;;;5.93;5.43;;;;;20.30;98749.00;;;;2079690;28;20228;-51
2021/01/29 01:14:19;;;;;;;6.70;6.17;;;;;20.30;98739.00;;;;2078527;28;20236;-51
2021/01/29 01:15:22;;;;;;;6.40;5.90;;;;;20.30;98736.00;;;;2077482;28;20320;-51
2021/01/29 01:16:22;;;;;;;6.72;6.00;;;;;20.30;98740.00;;;;2078846;28;20218;-50
2021/01/29 01:17:23;;;;;;;6.43;5.83;;;;;20.30;98731.00;;;;2078624;28;20210;-51
2021/01/29 01:18:23;;;;;;;6.03;5.53;;;;;20.30;98735.00;;;;2079959;28;20256;-50
2021/01/29 01:19:23;;;;;;;5.63;5.13;;;;;20.30;98731.00;;;;2078721;28;20247;-50
2021/01/29 01:20:26;;;;;;;6.00;5.37;;;;;20.30;98741.00;;;;2078801;28;20221;-50
2021/01/29 01:21:26;;;;;;;6.28;5.68;;;;;20.30;98731.00;;;;2078804;28;20296;-51
2021/01/29 01:22:26;;;;;;;6.40;5.87;;;;;20.30;98737.00;;;;2078504;28;20210;-50
2021/01/29 01:23:27;;;;;;;6.00;5.50;;;;;20.30;98720.00;;;;2078569;28;20209;-50
2021/01/29 01:24:27;;;;;;;5.70;5.30;;;;;20.30;98731.00;;;;2078255;28;20633;-51
2021/01/29 01:25:27;;;;;;;6.20;5.70;;;;;20.30;98721.00;;;;2077278;28;20216;-51
2021/01/29 01:26:28;;;;;;;6.07;5.57;;;;;20.30;98720.00;;;;2075105;28;20213;-51
2021/01/29 01:27:28;;;;;;;6.10;5.53;;;;;20.30;98728.00;;;;2074282;28;20210;-51
2021/01/29 01:28:28;;;;;;;6.57;5.97;;;;;20.30;98720.00;;;;2078069;28;20687;-50
2021/01/29 01:29:29;;;;;;;6.07;5.47;;;;;20.30;98721.00;;;;2078027;28;20591;-51
2021/01/29 01:30:32;;;;;;;6.30;5.80;;;;;20.30;98715.00;;;;2079606;28;20676;-50
2021/01/29 01:31:32;;;;;;;6.30;5.60;;;;;20.30;98713.00;;;;2077479;28;20225;-50
2021/01/29 01:32:32;;;;;;;7.13;6.50;;;;;20.30;98715.00;;;;2077948;28;20926;-51
2021/01/29 01:33:33;;;;;;;6.00;5.50;;;;;20.30;98706.00;;;;2079809;28;20626;-51
2021/01/29 01:34:33;;;;;;;6.20;5.60;;;;;20.10;98712.00;;;;2079523;28;20221;-52
2021/01/29 01:35:33;;;;;;;6.20;5.40;;;;;20.20;98705.00;;;;2074543;28;20217;-49
2021/01/29 01:36:34;;;;;;;6.57;5.97;;;;;20.20;98706.00;;;;2079011;28;20224;-54
2021/01/29 01:37:34;;;;;;;5.87;5.37;;;;;20.20;98706.00;;;;2079862;28;20315;-53
2021/01/29 01:38:34;;;;;;;6.03;5.53;;;;;20.30;98706.00;;;;2079976;28;20217;-53
2021/01/29 01:39:35;;;;;;;6.27;5.70;;;;;20.20;98694.00;;;;2080077;28;20583;-53
2021/01/29 01:40:38;;;;;;;5.50;5.00;;;;;20.20;98700.00;;;;2080154;28;20217;-53
2021/01/29 01:41:38;;;;;;;6.20;5.60;;;;;20.20;98695.00;;;;2080195;28;20202;-50
2021/01/29 01:42:38;;;;;;;6.33;5.77;;;;;20.20;98691.00;;;;2078762;28;20221;-51
2021/01/29 01:43:39;;;;;;;6.07;5.47;;;;;20.20;98683.00;;;;2080081;28;20217;-51
2021/01/29 01:44:43;;;;;;;5.80;5.30;;;;;20.20;98684.00;;;;2079911;28;20210;-51
2021/01/29 01:45:52;;;;;;;5.88;5.38;;;;;20.20;98686.00;;;;2078764;28;20287;-52
2021/01/29 01:46:52;;;;;;;5.82;5.32;;;;;20.20;98682.00;;;;2072894;28;20215;-52
2021/01/29 01:48:01;;;;;;;6.50;5.90;;;;;20.20;98677.00;;;;2076357;28;20206;-50
2021/01/29 01:49:08;;;;;;;5.93;5.43;;;;;20.20;98675.00;;;;2078587;28;20230;-51
2021/01/29 01:50:24;;;;;;;5.90;5.32;;;;;20.20;98666.00;;;;2062826;28;20249;-50
2021/01/29 01:51:30;;;;;;;5.68;5.28;;;;;20.20;98662.00;;;;2047932;28;20261;-51
2021/01/29 01:52:32;;;;;;;5.90;5.40;;;;;20.20;98663.00;;;;2066615;28;20299;-50
2021/01/29 01:53:38;;;;;;;5.95;5.38;;;;;20.20;98657.00;;;;2075562;28;20571;-51
2021/01/29 01:54:48;;;;;;;5.70;5.20;;;;;20.20;98658.00;;;;2070815;28;20635;-51
2021/01/29 01:55:50;;;;;;;6.35;5.75;;;;;20.20;98656.00;;;;2077925;28;20210;-49
2021/01/29 01:56:52;;;;;;;5.95;5.35;;;;;20.20;98610.00;;;;2079042;28;20221;-50
2021/01/29 01:57:53;;;;;;;5.88;5.38;;;;;20.20;98642.00;;;;2075914;28;20209;-50
2021/01/29 01:58:57;;;;;;;5.60;5.10;;;;;20.20;98630.00;;;;2068908;28;20236;-51
2021/01/29 02:00:18;;;;;;;5.43;5.03;;;;;20.20;98636.00;;;;2072787;28;20230;-49
2021/01/29 02:01:19;;;;;;;6.05;5.20;;;;;20.20;98636.00;;;;2067843;28;20230;-51
2021/01/29 02:02:22;;;;;;;6.60;6.00;;;;;20.20;98627.00;;;;2059106;28;20226;-51
2021/01/29 02:03:24;;;;;;;5.80;5.30;;;;;20.20;98622.00;;;;2063333;28;20700;-49
2021/01/29 02:04:26;;;;;;;5.90;5.40;;;;;20.20;98623.00;;;;2070870;28;20686;-49
2021/01/29 02:05:32;;;;;;;5.50;4.95;;;;;20.20;98622.00;;;;2061900;28;20203;-50
2021/01/29 02:06:37;;;;;;;5.30;4.80;;;;;20.20;98606.00;;;;2059311;28;20218;-50
2021/01/29 02:07:41;;;;;;;5.88;5.10;;;;;20.20;98609.00;;;;2060755;28;20225;-51
2021/01/29 02:08:41;;;;;;;5.07;4.68;;;;;20.20;98613.00;;;;2070840;28;20292;-49
2021/01/29 02:09:43;;;;;;;5.67;5.07;;;;;20.20;98606.00;;;;2079349;28;20368;-50
2021/01/29 02:10:43;;;;;;;5.95;5.18;;;;;20.10;98609.00;;;;2079312;28;20221;-52
2021/01/29 02:11:43;;;;;;;5.43;4.90;;;;;20.20;98606.00;;;;2078508;28;20602;-49
2021/01/29 02:12:44;;;;;;;5.73;5.10;;;;;20.20;98600.00;;;;2064917;28;20282;-50
2021/01/29 02:13:44;;;;;;;5.60;5.10;;;;;20.20;98601.00;;;;2062773;28;20216;-51
2021/01/29 02:14:45;;;;;;;5.37;4.73;;;;;20.20;98600.00;;;;2071515;28;20214;-50
2021/01/29 02:15:49;;;;;;;6.35;5.43;;;;;20.20;98598.00;;;;2076086;28;20308;-51
2021/01/29 02:17:01;;;;;;;5.53;4.70;;;;;20.10;98591.00;;;;2079995;28;20217;-51
2021/01/29 02:18:22;;;;;;;5.85;5.00;;;;;20.10;98587.00;;;;2071252;28;20228;-50
2021/01/29 02:19:56;;;;;;;5.70;5.18;;;;;20.20;98578.00;;;;2070800;28;20222;-52
2021/01/29 02:21:18;;;;;;;6.43;5.18;;;;;20.10;98574.00;;;;2071501;28;20556;-51
2021/01/29 02:22:59;;;;;;;6.05;4.80;;;;;20.10;98563.00;;;;2078829;28;20213;-51
2021/01/29 02:24:23;;;;;;;6.38;4.78;;;;;20.10;98565.00;;;;2067686;28;20429;-50
2021/01/29 02:25:36;;;;;;;5.80;5.20;;;;;20.10;98559.00;;;;2075482;28;20217;-51
2021/01/29 02:26:54;;;;;;;6.07;5.47;;;;;20.10;98554.00;;;;2064386;28;20229;-52
2021/01/29 02:27:56;;;;;;;5.28;4.78;;;;;20.10;98549.00;;;;2067759;28;20312;-49
2021/01/29 02:29:30;;;;;;;6.50;5.90;;;;;20.10;98540.00;;;;2078824;28;20299;-51
2021/01/29 02:30:52;;;;;;;5.75;5.13;;;;;20.10;98540.00;;;;2078791;28;20228;-51
2021/01/29 02:32:17;;;;;;;5.63;4.63;;;;;20.10;98529.00;;;;2072235;28;20227;-51
2021/01/29 02:33:48;;;;;;;5.50;4.90;;;;;20.10;98523.00;;;;2079645;28;20607;-49
2021/01/29 02:35:03;;;;;;;6.78;5.00;;;;;20.10;98519.00;;;;2078229;28;20635;-49
2021/01/29 02:36:21;;;;;;;7.05;5.18;;;;;20.10;98518.00;;;;2079217;28;20220;-49
2021/01/29 02:37:44;;;;;;;5.35;4.53;;;;;20.10;98517.00;;;;2067749;28;20211;-51
2021/01/29 02:38:52;;;;;;;5.80;5.18;;;;;20.10;98513.00;;;;2070881;28;20237;-50
2021/01/29 02:39:53;;;;;;;5.78;5.15;;;;;20.10;98510.00;;;;2078943;28;20698;-51
2021/01/29 02:41:32;;;;;;;5.70;5.10;;;;;20.10;98508.00;;;;2079110;28;20297;-51
2021/01/29 02:42:40;;;;;;;6.68;5.35;;;;;20.10;98497.00;;;;2079384;28;20215;-51
2021/01/29 02:44:03;;;;;;;5.05;4.50;;;;;20.10;98506.00;;;;2078930;28;20222;-49
2021/01/29 02:45:17;;;;;;;5.35;4.85;;;;;20.10;98497.00;;;;2077274;28;20219;-49
2021/01/29 02:46:30;;;;;;;5.10;4.60;;;;;20.10;98494.00;;;;2078766;28;20585;-50
2021/01/29 02:47:30;;;;;;;5.30;4.80;;;;;20.10;98491.00;;;;2078942;28;20267;-50
2021/01/29 02:48:40;;;;;;;6.20;4.60;;;;;20.10;98481.00;;;;2064402;28;20223;-51
2021/01/29 02:50:06;;;;;;;5.82;5.18;;;;;20.10;98479.00;;;;2063942;28;20556;-51
2021/01/29 02:51:26;;;;;;;5.45;4.95;;;;;20.00;98477.00;;;;2073749;28;20227;-51
2021/01/29 02:52:44;;;;;;;5.70;4.63;;;;;20.00;98481.00;;;;2078583;28;20266;-49
2021/01/29 02:53:53;;;;;;;6.25;5.00;;;;;20.00;98471.00;;;;2062922;28;20699;-49
2021/01/29 02:55:14;;;;;;;5.80;5.18;;;;;20.00;98465.00;;;;2079439;28;20937;-49
2021/01/29 02:56:25;;;;;;;5.57;5.07;;;;;20.00;98462.00;;;;2079165;28;20215;-50
2021/01/29 02:57:40;;;;;;;6.63;5.30;;;;;20.00;98459.00;;;;2078641;28;20913;-51
2021/01/29 02:58:51;;;;;;;6.20;5.38;;;;;20.00;98456.00;;;;2077677;28;20272;-51
2021/01/29 03:00:17;;;;;;;5.65;5.10;;;;;20.00;98449.00;;;;2071233;28;20218;-49
2021/01/29 03:01:39;;;;;;;5.65;4.97;;;;;20.00;98445.00;;;;2065789;28;20225;-51
2021/01/29 03:03:01;;;;;;;7.43;4.88;;;;;20.00;98439.00;;;;2070264;28;20232;-51
2021/01/29 03:04:14;;;;;;;7.10;5.03;;;;;20.00;98442.00;;;;2071254;28;20714;-51
2021/01/29 03:05:17;;;;;;;6.90;5.30;;;;;20.00;98435.00;;;;2072771;28;20297;-51
2021/01/29 03:06:37;;;;;;;6.93;4.97;;;;;20.00;98419.00;;;;2069958;28;20211;-51
2021/01/29 03:07:42;;;;;;;6.55;5.10;;;;;20.00;98433.00;;;;2077497;28;20213;-50
2021/01/29 03:08:46;;;;;;;5.28;4.40;;;;;20.00;98429.00;;;;2070206;28;20331;-49
2021/01/29 03:09:58;;;;;;;5.57;4.30;;;;;20.00;98424.00;;;;2069799;28;20350;-50
2021/01/29 03:11:17;;;;;;;6.05;5.40;;;;;20.00;98419.00;;;;2072241;28;20213;-51
2021/01/29 03:12:21;;;;;;;7.28;4.90;;;;;20.00;98419.00;;;;2064525;28;20254;-49
2021/01/29 03:13:36;;;;;;;6.28;4.90;;;;;20.00;98408.00;;;;2051648;28;20228;-51
2021/01/29 03:15:09;;;;;;;6.55;4.80;;;;;20.00;98404.00;;;;2063591;28;20219;-48
2021/01/29 03:16:23;;;;;;;5.97;4.30;;;;;20.00;98409.00;;;;2082825;28;20217;-50
2021/01/29 03:17:30;;;;;;;5.35;4.55;;;;;20.00;98407.00;;;;2082739;28;20581;-52
2021/01/29 03:18:35;;;;;;;6.43;4.93;;;;;20.00;98408.00;;;;2078710;28;20221;-49
2021/01/29 03:19:48;;;;;;;7.13;4.45;;;;;20.00;98382.00;;;;2078737;28;20232;-51
2021/01/29 03:21:11;;;;;;;5.50;4.82;;;;;20.00;98395.00;;;;2046576;28;20226;-50
2021/01/29 03:22:15;;;;;;;6.93;5.10;;;;;20.00;98392.00;;;;2069533;28;20738;-52
2021/01/29 03:23:23;;;;;;;5.60;4.38;;;;;20.00;98390.00;;;;2078463;28;20744;-52
2021/01/29 03:24:27;;;;;;;6.85;5.00;;;;;20.00;98388.00;;;;2076479;28;20204;-51
2021/01/29 03:25:32;;;;;;;8.27;5.05;;;;;20.00;98383.00;;;;2061981;28;20218;-51
2021/01/29 03:26:36;;;;;;;5.30;4.82;;;;;20.00;98388.00;;;;2067308;28;20268;-52
2021/01/29 03:27:41;;;;;;;6.20;4.50;;;;;20.00;98379.00;;;;2077349;28;20275;-52
2021/01/29 03:28:43;;;;;;;5.05;4.50;;;;;20.00;98378.00;;;;2071361;28;20780;-49
2021/01/29 03:29:45;;;;;;;6.80;4.63;;;;;20.00;98376.00;;;;2069492;28;20712;-51
2021/01/29 03:30:47;;;;;;;5.53;4.80;;;;;20.00;98371.00;;;;2062227;28;20214;-55
2021/01/29 03:31:48;;;;;;;4.80;4.40;;;;;20.00;98379.00;;;;2078372;28;20601;-50
2021/01/29 03:32:50;;;;;;;5.38;4.88;;;;;20.00;98367.00;;;;2062160;28;20219;-49
2021/01/29 03:33:56;;;;;;;5.57;4.40;;;;;19.90;98363.00;;;;2062419;28;20214;-50
2021/01/29 03:35:11;;;;;;;5.05;4.40;;;;;20.00;98364.00;;;;2073336;28;20221;-50
2021/01/29 03:36:14;;;;;;;6.50;4.75;;;;;20.00;98355.00;;;;2078834;28;20295;-50
2021/01/29 03:37:35;;;;;;;4.90;4.43;;;;;19.90;98349.00;;;;2070674;28;20722;-52
2021/01/29 03:38:41;;;;;;;6.68;4.82;;;;;19.90;98353.00;;;;2070397;28;20213;-50
2021/01/29 03:39:41;;;;;;;5.40;4.40;;;;;19.90;98345.00;;;;2070257;28;20729;-48
2021/01/29 03:40:42;;;;;;;6.90;4.47;;;;;19.90;98345.00;;;;2078363;28;20221;-51
2021/01/29 03:41:44;;;;;;;4.95;4.10;;;;;19.90;98333.00;;;;2078739;28;20210;-51
2021/01/29 03:42:51;;;;;;;5.20;4.60;;;;;19.90;98337.00;;;;2077620;28;20237;-51
2021/01/29 03:44:13;;;;;;;5.03;4.53;;;;;19.90;98332.00;;;;2078384;28;20667;-50
2021/01/29 03:45:18;;;;;;;4.93;4.43;;;;;19.90;98332.00;;;;2077641;28;20223;-50
2021/01/29 03:46:31;;;;;;;4.53;4.13;;;;;19.90;98335.00;;;;2069883;28;20206;-51
2021/01/29 03:47:34;;;;;;;7.75;4.80;;;;;19.90;98336.00;;;;2064235;28;20211;-49
2021/01/29 03:48:38;;;;;;;4.68;4.18;;;;;19.90;98330.00;;;;2069643;28;20218;-52
2021/01/29 03:50:05;;;;;;;4.95;4.40;;;;;19.90;98325.00;;;;2076805;28;20233;-52
2021/01/29 03:51:12;;;;;;;4.15;3.75;;;;;19.90;98334.00;;;;2067749;28;20575;-49
2021/01/29 03:52:29;;;;;;;4.72;4.18;;;;;19.90;98324.00;;;;2070878;28;20225;-50
2021/01/29 03:53:37;;;;;;;4.22;3.70;;;;;19.90;98324.00;;;;2064292;28;20219;-50
2021/01/29 03:54:56;;;;;;;5.10;4.15;;;;;19.90;98316.00;;;;2064459;28;20910;-51
2021/01/29 03:56:25;;;;;;;4.78;4.18;;;;;19.90;98306.00;;;;2062578;28;20218;-52
2021/01/29 03:57:30;;;;;;;3.78;3.47;;;;;19.90;98313.00;;;;2075999;28;20212;-51
2021/01/29 03:58:54;;;;;;;4.50;3.70;;;;;19.90;98308.00;;;;2069095;28;20238;-51
2021/01/29 04:00:12;;;;;;;4.65;3.95;;;;;19.90;98301.00;;;;2067413;28;20210;-51
2021/01/29 04:01:19;;;;;;;3.97;3.60;;;;;19.90;98300.00;;;;2064834;28;20246;-50
2021/01/29 04:02:27;;;;;;;4.90;3.58;;;;;19.90;98289.00;;;;2054124;28;20219;-49
2021/01/29 04:03:34;;;;;;;3.97;3.55;;;;;19.90;98290.00;;;;2072082;28;20210;-51
2021/01/29 04:05:07;;;;;;;3.47;3.17;;;;;19.90;98296.00;;;;2077032;28;20206;-51
2021/01/29 04:06:18;;;;;;;3.90;2.95;;;;;19.90;98275.00;;;;2040566;28;20307;-52
2021/01/29 04:07:28;;;;;;;3.60;3.15;;;;;19.90;98282.00;;;;2071497;28;20225;-51
2021/01/29 04:08:34;;;;;;;3.28;2.97;;;;;19.90;98274.00;;;;2072229;28;20315;-50
2021/01/29 04:09:49;;;;;;;3.47;3.17;;;;;19.90;98269.00;;;;2063716;28;20216;-51
2021/01/29 04:10:49;;;;;;;5.00;3.05;;;;;19.90;98267.00;;;;2066334;28;21231;-50
2021/01/29 04:11:51;;;;;;;2.97;2.60;;;;;19.90;98263.00;;;;2071372;28;20214;-50
2021/01/29 04:13:17;;;;;;;4.80;2.97;;;;;19.80;98246.00;;;;2078253;28;21036;-50
2021/01/29 04:14:39;;;;;;;4.55;2.85;;;;;19.90;98259.00;;;;2073754;28;20707;-51
2021/01/29 04:15:43;;;;;;;2.90;2.60;;;;;19.90;98254.00;;;;2069006;28;20261;-50
2021/01/29 04:16:45;;;;;;;4.05;3.22;;;;;19.90;98259.00;;;;2086641;28;20216;-51
2021/01/29 04:18:02;;;;;;;2.83;2.53;;;;;19.90;98252.00;;;;2065607;28;20700;-50
2021/01/29 04:19:03;;;;;;;4.35;2.50;;;;;19.90;98257.00;;;;2059720;28;20226;-48
2021/01/29 04:20:09;;;;;;;2.87;2.53;;;;;19.90;98248.00;;;;2059538;28;20207;-51
2021/01/29 04:21:14;;;;;;;3.20;2.78;;;;;19.90;98236.00;;;;2055483;28;20565;-51
2021/01/29 04:22:22;;;;;;;3.45;2.35;;;;;19.90;98240.00;;;;2068921;28;20271;-51
2021/01/29 04:23:43;;;;;;;2.58;2.38;;;;;19.90;98234.00;;;;2069865;28;20633;-52
2021/01/29 04:24:48;;;;;;;2.42;2.08;;;;;19.80;98228.00;;;;2060345;28;20227;-51
2021/01/29 04:25:55;;;;;;;2.38;2.17;;;;;19.90;98222.00;;;;2063630;28;20214;-48
2021/01/29 04:27:24;;;;;;;2.67;2.40;;;;;19.90;98227.00;;;;2058877;28;20214;-51
2021/01/29 04:28:24;;;;;;;2.17;2.00;;;;;19.90;98216.00;;;;2074920;28;20210;-52
2021/01/29 04:29:30;;;;;;;2.93;2.27;;;;;19.90;98212.00;;;;2061733;28;20718;-49
2021/01/29 04:30:31;;;;;;;2.00;1.80;;;;;19.80;98211.00;;;;2070740;28;20960;-52
2021/01/29 04:31:31;;;;;;;3.40;1.80;;;;;19.80;98210.00;;;;2061849;28;20302;-52
2021/01/29 04:32:35;;;;;;;2.90;2.10;;;;;19.80;98210.00;;;;2054151;28;20473;-51
2021/01/29 04:33:40;;;;;;;1.98;1.83;;;;;19.80;98210.00;;;;2070384;28;20226;-52
2021/01/29 04:34:42;;;;;;;2.60;2.30;;;;;19.80;98197.00;;;;2063634;28;20222;-52
2021/01/29 04:35:42;;;;;;;1.88;1.70;;;;;19.80;98210.00;;;;2061799;28;20211;-50
2021/01/29 04:36:42;;;;;;;2.20;1.77;;;;;19.80;98208.00;;;;2076564;28;20229;-50
2021/01/29 04:38:06;;;;;;;2.53;1.90;;;;;19.80;98203.00;;;;2076608;28;20232;-51
2021/01/29 04:39:19;;;;;;;2.08;1.60;;;;;19.80;98196.00;;;;2067718;28;20336;-50
2021/01/29 04:40:29;;;;;;;2.65;1.85;;;;;19.80;98202.00;;;;2074607;28;20217;-51
2021/01/29 04:41:53;;;;;;;1.70;1.60;;;;;19.80;98192.00;;;;2067699;28;20218;-52
2021/01/29 04:43:17;;;;;;;1.85;1.75;;;;;19.80;98198.00;;;;2068949;28;20222;-52
2021/01/29 04:44:24;;;;;;;1.75;1.65;;;;;19.80;98187.00;;;;2069532;28;20210;-52
2021/01/29 04:45:52;;;;;;;2.45;1.90;;;;;19.80;98181.00;;;;2076732;28;20702;-51
2021/01/29 04:46:53;;;;;;;2.25;1.48;;;;;19.80;98185.00;;;;2077828;28;20232;-50
2021/01/29 04:48:10;;;;;;;2.08;1.85;;;;;19.80;98178.00;;;;2078706;28;20702;-52
2021/01/29 04:49:44;;;;;;;3.60;1.80;;;;;19.80;98127.00;;;;2067531;28;20230;-50
2021/01/29 04:50:59;;;;;;;2.70;1.58;;;;;19.80;98182.00;;;;2068563;28;20695;-49
2021/01/29 04:52:13;;;;;;;2.25;1.77;;;;;19.80;98172.00;;;;2058484;28;20280;-50
2021/01/29 04:53:19;;;;;;;2.40;1.17;;;;;19.80;98170.00;;;;2064455;28;20749;-49
2021/01/29 04:54:52;;;;;;;2.95;1.50;;;;;19.80;98163.00;;;;2084417;28;20227;-49
2021/01/29 04:56:05;;;;;;;3.63;1.70;;;;;19.80;98164.00;;;;2060758;28;20233;-51
2021/01/29 04:57:31;;;;;;;1.42;1.13;;;;;19.80;98169.00;;;;2065265;28;20260;-50
2021/01/29 04:58:37;;;;;;;2.60;1.60;;;;;19.80;98159.00;;;;2063750;28;20279;-51
2021/01/29 04:59:45;;;;;;;1.63;1.50;;;;;19.80;98151.00;;;;2054260;28;20736;-50
2021/01/29 05:01:22;;;;;;;1.80;1.20;;;;;19.80;98157.00;;;;2063132;28;20362;-50
2021/01/29 05:02:41;;;;;;;2.53;1.50;;;;;19.80;98158.00;;;;2080631;28;20213;-52
2021/01/29 05:03:47;;;;;;;1.90;1.60;;;;;19.80;98153.00;;;;2077678;28;20253;-51
2021/01/29 05:04:58;;;;;;;1.63;1.52;;;;;19.80;98151.00;;;;2077225;28;20237;-52
2021/01/29 05:06:16;;;;;;;1.80;1.50;;;;;19.80;98144.00;;;;2076699;28;20280;-50
2021/01/29 05:07:45;;;;;;;1.60;1.40;;;;;19.80;98144.00;;;;2073179;28;20675;-52
2021/01/29 05:09:09;;;;;;;1.88;1.55;;;;;19.80;98143.00;;;;2078764;28;20213;-52
2021/01/29 05:10:28;;;;;;;1.35;1.25;;;;;19.80;98142.00;;;;2073886;28;20247;-52
2021/01/29 05:11:56;;;;;;;1.50;1.30;;;;;19.80;98143.00;;;;2073129;28;20264;-51
2021/01/29 05:13:25;;;;;;;2.10;1.30;;;;;19.80;98137.00;;;;2079500;28;20216;-53
2021/01/29 05:14:50;;;;;;;1.90;1.40;;;;;19.80;98137.00;;;;2079810;28;20237;-51
2021/01/29 05:16:09;;;;;;;2.67;1.33;;;;;19.80;98123.00;;;;2071178;28;20309;-53
2021/01/29 05:17:48;;;;;;;2.45;1.42;;;;;19.80;98121.00;;;;2079533;28;20909;-51
2021/01/29 05:19:04;;;;;;;1.52;1.33;;;;;19.80;98133.00;;;;2079357;28;20240;-51
2021/01/29 05:20:07;;;;;;;1.30;1.10;;;;;19.80;98117.00;;;;2079673;28;20239;-52
2021/01/29 05:21:24;;;;;;;1.65;1.20;;;;;19.80;98122.00;;;;2079178;28;20229;-50
2021/01/29 05:22:37;;;;;;;2.80;1.40;;;;;19.80;98115.00;;;;2078811;28;20213;-52
2021/01/29 05:24:02;;;;;;;1.90;1.25;;;;;19.80;98119.00;;;;2078504;28;20301;-52
2021/01/29 05:25:06;;;;;;;1.88;1.48;;;;;19.80;98112.00;;;;2076618;28;20267;-52
2021/01/29 05:26:14;;;;;;;1.23;0.82;;;;;19.80;98113.00;;;;2079866;28;20221;-51
2021/01/29 05:27:33;;;;;;;2.05;1.55;;;;;19.70;98110.00;;;;2069023;28;20210;-52
2021/01/29 05:28:57;;;;;;;1.70;0.98;;;;;19.70;98107.00;;;;2072507;28;20223;-50
2021/01/29 05:30:17;;;;;;;2.67;1.38;;;;;19.70;98106.00;;;;2065263;28;20692;-52
2021/01/29 05:31:41;;;;;;;1.58;1.35;;;;;19.70;98103.00;;;;2086165;28;20219;-51
2021/01/29 05:33:35;;;;;;;1.38;1.27;;;;;19.70;98101.00;;;;2083920;28;20417;-51
2021/01/29 05:35:11;;;;;;;1.55;1.45;;;;;19.70;98103.00;;;;2054009;28;20231;-51
2021/01/29 05:37:02;;;;;;;1.55;1.45;;;;;19.70;98100.00;;;;2046129;29;20215;-51
2021/01/29 05:38:32;;;;;;;1.75;1.30;;;;;19.70;98095.00;;;;2022345;29;20295;-51
2021/01/29 05:39:35;;;;;;;1.20;1.10;;;;;19.70;98091.00;;;;2037598;28;20219;-52
2021/01/29 05:40:44;;;;;;;1.33;1.23;;;;;19.70;98098.00;;;;2079150;28;20332;-51
2021/01/29 05:41:56;;;;;;;1.65;1.55;;;;;19.70;98083.00;;;;2071293;28;20229;-53
2021/01/29 05:43:25;;;;;;;1.42;1.20;;;;;19.70;98089.00;;;;2079177;28;20209;-51
2021/01/29 05:44:51;;;;;;;1.42;1.20;;;;;19.70;98085.00;;;;2078892;28;20724;-50